createdAt,value
2018-08-02T00:00:25.622Z,13.59
2018-08-02T00:01:57.192Z,13.59
2018-08-02T00:03:28.756Z,13.55
2018-08-02T00:05:00.324Z,13.45
2018-08-02T00:06:31.891Z,13.49
2018-08-02T00:08:03.459Z,13.51
2018-08-02T00:09:35.027Z,13.52
2018-08-02T00:11:06.594Z,13.49
2018-08-02T00:12:38.161Z,13.52
2018-08-02T00:14:09.729Z,13.51
2018-08-02T00:15:41.298Z,13.54
2018-08-02T00:17:12.965Z,13.54
2018-08-02T00:18:44.483Z,13.51
2018-08-02T00:20:15.999Z,13.41
2018-08-02T00:21:47.569Z,13.42
2018-08-02T00:23:19.134Z,13.45
2018-08-02T00:24:50.743Z,13.44
2018-08-02T00:26:22.271Z,13.45
2018-08-02T00:27:53.837Z,13.45
2018-08-02T00:29:25.406Z,13.46
2018-08-02T00:30:56.972Z,13.45
2018-08-02T00:32:28.545Z,13.48
2018-08-02T00:34:00.108Z,13.54
2018-08-02T00:35:31.775Z,13.60
2018-08-02T00:37:03.243Z,13.48
2018-08-02T00:38:34.816Z,13.48
2018-08-02T00:40:06.393Z,13.49
2018-08-02T00:41:37.945Z,13.48
2018-08-02T00:43:09.515Z,13.54
2018-08-02T00:44:41.081Z,13.51
2018-08-02T00:46:12.649Z,13.52
2018-08-02T00:47:44.225Z,13.55
2018-08-02T00:49:15.784Z,13.45
2018-08-02T00:50:47.353Z,13.46
2018-08-02T00:52:18.919Z,13.54
2018-08-02T00:53:50.586Z,13.49
2018-08-02T00:55:22.058Z,13.52
2018-08-02T00:56:53.621Z,13.48
2018-08-02T00:58:25.188Z,13.59
2018-08-02T00:59:56.756Z,13.63
2018-08-02T01:01:28.332Z,13.60
2018-08-02T01:02:59.893Z,13.55
2018-08-02T01:04:31.459Z,13.64
2018-08-02T01:06:03.026Z,13.63
2018-08-02T01:07:34.593Z,13.54
2018-08-02T01:09:06.161Z,13.60
2018-08-02T01:10:37.734Z,13.60
2018-08-02T01:12:09.395Z,13.62
2018-08-02T01:13:40.863Z,13.60
2018-08-02T01:15:12.430Z,13.64
2018-08-02T01:16:43.999Z,13.64
2018-08-02T01:18:15.568Z,13.70
2018-08-02T01:19:47.132Z,13.60
2018-08-02T01:21:18.700Z,13.62
2018-08-02T01:22:50.268Z,13.66
2018-08-02T01:24:21.835Z,13.67
2018-08-02T01:25:53.402Z,13.59
2018-08-02T01:27:24.969Z,13.67
2018-08-02T01:28:56.538Z,13.64
2018-08-02T01:30:28.205Z,13.63
2018-08-02T01:31:59.678Z,13.62
2018-08-02T01:33:31.242Z,13.62
2018-08-02T01:35:02.806Z,13.60
2018-08-02T01:36:34.374Z,13.60
2018-08-02T01:38:05.980Z,13.64
2018-08-02T01:39:37.510Z,13.63
2018-08-02T01:41:09.077Z,13.70
2018-08-02T01:42:40.645Z,13.69
2018-08-02T01:44:12.212Z,13.64
2018-08-02T01:45:43.786Z,13.70
2018-08-02T01:47:15.347Z,13.66
2018-08-02T01:48:47.115Z,13.67
2018-08-02T01:50:18.483Z,13.69
2018-08-02T01:51:50.050Z,13.63
2018-08-02T01:53:21.620Z,13.69
2018-08-02T01:54:53.185Z,13.66
2018-08-02T01:56:24.753Z,13.73
2018-08-02T01:57:56.321Z,13.69
2018-08-02T01:59:27.887Z,13.67
2018-08-02T02:00:59.456Z,13.70
2018-08-02T02:02:31.023Z,13.67
2018-08-02T02:04:02.599Z,13.70
2018-08-02T02:05:34.158Z,13.70
2018-08-02T02:07:05.825Z,13.70
2018-08-02T02:08:37.293Z,13.69
2018-08-02T02:10:08.861Z,13.66
2018-08-02T02:11:40.431Z,13.69
2018-08-02T02:13:11.996Z,13.64
2018-08-02T02:14:43.565Z,13.63
2018-08-02T02:16:15.133Z,13.70
2018-08-02T02:17:46.699Z,13.66
2018-08-02T10:24:56.676Z,14.32
2018-08-02T10:26:22.691Z,14.24
2018-08-02T10:29:25.627Z,14.28
2018-08-02T10:30:58.164Z,14.37
2018-08-02T10:32:28.963Z,14.47
2018-08-02T10:34:00.329Z,14.50
2018-08-02T10:35:31.900Z,14.61
2018-08-02T10:38:35.035Z,14.68
2018-08-02T10:40:06.908Z,14.80
2018-08-02T10:41:38.173Z,14.88
2018-08-02T10:44:42.017Z,14.89
2018-08-02T10:47:44.650Z,14.83
2018-08-02T10:49:16.018Z,14.77
2018-08-02T10:50:47.742Z,14.64
2018-08-02T10:52:19.156Z,14.77
2018-08-02T10:53:50.962Z,14.88
2018-08-02T10:55:22.293Z,14.91
2018-08-02T10:56:53.863Z,14.94
2018-08-02T10:59:57.001Z,15.21
2018-08-02T11:03:00.459Z,15.16
2018-08-02T11:04:31.709Z,15.16
2018-08-02T11:06:03.280Z,15.19
2018-08-02T11:09:06.418Z,15.29
2018-08-02T11:10:38.191Z,15.20
2018-08-02T11:13:41.128Z,15.17
2018-08-02T11:15:12.698Z,15.31
2018-08-02T11:16:44.269Z,15.43
2018-08-02T11:18:15.838Z,15.56
2018-08-02T11:27:25.362Z,15.20
2018-08-02T11:28:57.136Z,15.20
2018-08-02T11:33:31.895Z,15.47
2018-08-02T11:35:03.129Z,15.49
2018-08-02T11:36:34.681Z,15.41
2018-08-02T11:39:37.822Z,15.41
2018-08-02T11:41:09.595Z,15.47
2018-08-02T11:42:40.967Z,15.59
2018-08-02T11:44:13.056Z,15.51
2018-08-02T11:45:44.205Z,15.51
2018-08-02T11:47:15.675Z,15.51
2018-08-02T11:48:47.245Z,15.51
2018-08-02T11:50:18.816Z,15.46
2018-08-02T11:51:51.170Z,15.50
2018-08-02T11:53:22.124Z,15.64
2018-08-02T11:54:53.730Z,15.47
2018-08-02T11:56:25.267Z,15.46
2018-08-02T11:59:28.429Z,15.49
2018-08-02T12:00:59.848Z,15.43
2018-08-02T12:02:31.420Z,15.57
2018-08-02T12:04:02.949Z,15.53
2018-08-02T12:05:34.671Z,15.67
2018-08-02T12:07:06.091Z,15.67
2018-08-02T12:08:38.021Z,15.60
2018-08-02T12:10:09.235Z,15.53
2018-08-02T12:14:43.999Z,15.82
2018-08-02T12:16:16.108Z,15.78
2018-08-02T12:17:47.119Z,15.96
2018-08-02T12:19:18.736Z,16.01
2018-08-02T12:20:50.330Z,15.74
2018-08-02T12:22:21.800Z,15.74
2018-08-02T12:23:53.610Z,15.71
2018-08-02T12:25:25.025Z,15.60
2018-08-02T12:28:28.597Z,15.64
2018-08-02T12:29:59.703Z,15.80
2018-08-02T12:33:03.101Z,16.34
2018-08-02T12:34:34.420Z,16.41
2018-08-02T12:36:05.939Z,16.35
2018-08-02T12:37:37.509Z,16.28
2018-08-02T12:39:09.385Z,16.33
2018-08-02T12:40:41.084Z,16.43
2018-08-02T12:42:12.244Z,16.38
2018-08-02T12:43:44.000Z,16.31
2018-08-02T12:45:15.368Z,16.34
2018-08-02T12:48:18.619Z,16.24
2018-08-02T12:49:50.088Z,16.28
2018-08-02T12:51:21.670Z,16.38
2018-08-02T12:52:53.362Z,16.34
2018-08-02T12:54:24.888Z,16.33
2018-08-02T12:55:56.457Z,16.52
2018-08-02T12:57:28.157Z,16.58
2018-08-02T12:58:59.631Z,16.50
2018-08-02T13:00:31.715Z,16.49
2018-08-02T13:02:02.886Z,16.48
2018-08-02T13:03:34.573Z,16.39
2018-08-02T13:06:37.382Z,16.60
2018-08-02T13:08:08.969Z,16.39
2018-08-02T13:11:12.420Z,16.61
2018-08-02T13:12:43.679Z,16.60
2018-08-02T13:14:15.273Z,16.60
2018-08-02T13:17:18.620Z,17.01
2018-08-02T13:18:50.101Z,16.61
2018-08-02T13:20:21.585Z,17.04
2018-08-02T13:21:53.520Z,17.19
2018-08-02T13:23:24.690Z,17.51
2018-08-02T13:24:56.644Z,17.16
2018-08-02T13:26:31.796Z,16.81
2018-08-02T13:29:32.188Z,16.89
2018-08-02T13:31:03.610Z,17.19
2018-08-02T13:32:35.255Z,17.52
2018-08-02T13:34:05.708Z,17.56
2018-08-02T13:35:37.435Z,17.37
2018-08-02T13:37:09.055Z,17.31
2018-08-02T13:38:40.430Z,17.14
2018-08-02T13:40:12.178Z,17.34
2018-08-02T13:41:43.884Z,17.16
2018-08-02T13:43:17.558Z,17.52
2018-08-02T13:44:48.297Z,17.55
2018-08-02T13:46:19.900Z,17.66
2018-08-02T13:47:49.882Z,17.04
2018-08-02T13:49:21.583Z,16.91
2018-08-02T13:50:53.120Z,16.86
2018-08-02T13:52:24.925Z,16.67
2018-08-02T13:53:57.085Z,16.83
2018-08-02T13:55:28.573Z,16.82
2018-08-02T13:56:59.323Z,17.04
2018-08-02T13:58:30.903Z,17.04
2018-08-02T14:00:02.677Z,16.96
2018-08-02T14:01:34.043Z,17.03
2018-08-02T14:04:37.219Z,16.86
2018-08-02T14:06:09.174Z,17.19
2018-08-02T14:07:40.338Z,17.04
2018-08-02T14:09:11.918Z,17.25
2018-08-02T14:10:43.485Z,17.14
2018-08-02T14:12:15.107Z,16.96
2018-08-02T14:13:46.729Z,17.01
2018-08-02T14:15:18.202Z,17.01
2018-08-02T14:16:50.501Z,17.30
2018-08-02T14:18:21.853Z,17.19
2018-08-02T14:19:52.921Z,17.15
2018-08-02T14:22:56.068Z,17.40
2018-08-02T14:25:59.625Z,17.28
2018-08-02T14:27:31.169Z,17.52
2018-08-02T14:29:02.883Z,17.79
2018-08-02T14:30:33.934Z,17.81
2018-08-02T14:32:06.135Z,18.03
2018-08-02T14:33:37.080Z,18.10
2018-08-02T14:35:09.592Z,17.93
2018-08-02T14:36:40.234Z,17.75
2018-08-02T14:38:11.826Z,17.56
2018-08-02T14:39:43.836Z,17.16
2018-08-02T14:41:14.955Z,17.26
2018-08-02T14:42:48.199Z,17.46
2018-08-02T14:44:18.508Z,17.49
2018-08-02T14:45:49.681Z,17.30
2018-08-02T14:47:21.250Z,17.15
2018-08-02T14:48:52.869Z,17.03
2018-08-02T14:50:24.695Z,16.97
2018-08-02T14:51:56.009Z,16.96
2018-08-02T14:53:27.563Z,16.91
2018-08-02T14:54:59.120Z,17.06
2018-08-02T14:56:30.696Z,17.21
2018-08-02T14:58:02.257Z,17.22
2018-08-02T14:59:33.881Z,17.31
2018-08-02T15:02:37.660Z,17.37
2018-08-02T15:04:37.122Z,17.51
2018-08-02T15:06:06.898Z,17.56
2018-08-02T15:07:38.468Z,17.54
2018-08-02T15:09:10.054Z,17.49
2018-08-02T15:10:41.815Z,17.33
2018-08-02T15:12:13.185Z,17.46
2018-08-02T15:15:17.459Z,17.58
2018-08-02T15:16:47.902Z,17.66
2018-08-02T15:18:19.516Z,17.55
2018-08-02T15:19:51.050Z,17.72
2018-08-02T15:21:22.724Z,17.79
2018-08-02T15:22:54.193Z,18.08
2018-08-02T15:24:25.767Z,18.32
2018-08-02T15:25:58.470Z,18.48
2018-08-02T15:29:00.689Z,18.80
2018-08-02T15:30:32.061Z,18.87
2018-08-02T15:32:03.839Z,19.16
2018-08-02T15:33:35.288Z,19.19
2018-08-02T15:36:38.999Z,18.73
2018-08-02T15:38:09.936Z,18.80
2018-08-02T15:41:13.407Z,18.44
2018-08-02T15:42:45.561Z,18.25
2018-08-02T15:44:16.248Z,18.30
2018-08-02T15:45:47.820Z,17.96
2018-08-02T15:47:19.394Z,17.95
2018-08-02T15:48:50.965Z,18.18
2018-08-02T15:50:22.954Z,18.50
2018-08-02T15:51:54.458Z,18.66
2018-08-02T15:53:26.214Z,18.50
2018-08-02T15:54:57.434Z,18.52
2018-08-02T15:56:28.842Z,18.48
2018-08-02T15:58:00.448Z,18.54
2018-08-02T15:59:31.995Z,18.51
2018-08-02T16:01:03.577Z,18.37
2018-08-02T16:02:35.146Z,18.41
2018-08-02T16:04:06.893Z,18.23
2018-08-02T16:05:38.342Z,18.18
2018-08-02T16:07:09.877Z,18.21
2018-08-02T16:08:41.652Z,18.25
2018-08-02T16:10:13.977Z,17.87
2018-08-02T16:11:44.643Z,17.79
2018-08-02T16:13:16.930Z,17.97
2018-08-02T16:14:48.489Z,17.97
2018-08-02T16:16:19.532Z,18.08
2018-08-02T16:17:50.948Z,18.11
2018-08-02T16:19:22.536Z,18.12
2018-08-02T16:20:54.054Z,17.54
2018-08-02T16:22:26.144Z,17.54
2018-08-02T16:23:57.240Z,17.68
2018-08-02T16:25:28.964Z,17.41
2018-08-02T16:30:05.269Z,17.08
2018-08-02T16:31:35.416Z,17.28
2018-08-02T16:33:06.649Z,17.49
2018-08-02T16:34:38.328Z,17.52
2018-08-02T16:37:41.380Z,17.56
2018-08-02T16:39:13.142Z,17.48
2018-08-02T16:40:45.082Z,17.41
2018-08-02T16:42:17.820Z,17.33
2018-08-02T16:43:47.957Z,17.21
2018-08-02T16:45:19.390Z,17.34
2018-08-02T16:46:50.854Z,17.36
2018-08-02T16:48:22.440Z,17.55
2018-08-02T16:49:54.151Z,17.71
2018-08-02T16:52:57.255Z,18.17
2018-08-02T16:54:28.666Z,18.18
2018-08-02T16:56:00.396Z,18.18
2018-08-02T16:57:31.969Z,18.02
2018-08-02T16:59:03.749Z,17.78
2018-08-02T17:00:35.194Z,17.78
2018-08-02T17:02:06.540Z,17.74
2018-08-02T17:03:38.106Z,17.51
2018-08-02T17:05:09.984Z,17.38
2018-08-02T17:06:41.424Z,17.49
2018-08-02T17:08:13.716Z,17.58
2018-08-02T17:09:44.507Z,17.51
2018-08-02T17:11:15.977Z,17.25
2018-08-02T17:14:20.247Z,17.49
2018-08-02T17:15:50.820Z,17.33
2018-08-02T17:18:53.890Z,17.66
2018-08-02T17:20:25.739Z,17.66
2018-08-02T17:21:57.087Z,17.63
2018-08-02T17:26:33.305Z,17.34
2018-08-02T17:28:03.278Z,17.51
2018-08-02T17:29:35.176Z,17.52
2018-08-02T17:31:06.932Z,17.56
2018-08-02T17:32:38.255Z,17.66
2018-08-02T17:34:10.366Z,17.49
2018-08-02T17:35:42.007Z,17.43
2018-08-02T17:37:13.177Z,17.33
2018-08-02T17:41:47.698Z,17.31
2018-08-02T17:43:19.008Z,17.33
2018-08-02T17:44:50.643Z,17.37
2018-08-02T17:47:54.279Z,17.48
2018-08-02T17:49:25.435Z,17.58
2018-08-02T17:50:57.001Z,17.59
2018-08-02T17:52:28.590Z,17.58
2018-08-02T17:54:00.073Z,17.72
2018-08-02T17:55:31.702Z,17.81
2018-08-02T17:57:03.413Z,17.84
2018-08-02T18:00:06.584Z,17.84
2018-08-02T18:01:38.419Z,17.81
2018-08-02T18:03:10.361Z,17.93
2018-08-02T18:04:41.558Z,17.82
2018-08-02T18:06:12.914Z,17.89
2018-08-02T18:07:46.604Z,17.77
2018-08-02T18:09:15.810Z,17.75
2018-08-02T18:10:47.860Z,17.54
2018-08-02T18:12:19.502Z,17.51
2018-08-02T18:13:51.380Z,17.48
2018-08-02T18:15:24.676Z,17.52
2018-08-02T18:16:55.302Z,17.40
2018-08-02T18:18:26.050Z,17.33
2018-08-02T18:19:57.335Z,17.33
2018-08-02T18:21:29.200Z,17.18
2018-08-02T18:23:00.980Z,17.23
2018-08-02T18:24:32.556Z,17.33
2018-08-02T18:26:03.426Z,17.33
2018-08-02T18:27:35.633Z,17.18
2018-08-02T18:29:06.517Z,17.01
2018-08-02T18:30:38.872Z,16.88
2018-08-02T18:32:09.544Z,17.01
2018-08-02T18:33:41.216Z,16.98
2018-08-02T18:35:12.755Z,17.04
2018-08-02T18:36:44.710Z,17.07
2018-08-02T18:38:16.230Z,17.01
2018-08-02T18:39:47.611Z,17.00
2018-08-02T18:44:22.248Z,17.07
2018-08-02T18:45:54.007Z,16.94
2018-08-02T18:47:25.362Z,17.01
2018-08-02T18:48:57.760Z,17.00
2018-08-02T18:50:28.804Z,16.97
2018-08-02T18:51:59.794Z,16.96
2018-08-02T18:53:31.476Z,16.73
2018-08-02T18:55:03.189Z,16.53
2018-08-02T18:56:35.242Z,16.35
2018-08-02T18:58:06.362Z,16.49
2018-08-02T18:59:37.751Z,16.43
2018-08-02T19:01:10.079Z,16.61
2018-08-02T19:02:42.046Z,16.53
2018-08-02T19:04:12.662Z,16.45
2018-08-02T19:08:47.874Z,16.34
2018-08-02T19:10:18.856Z,16.46
2018-08-02T19:11:50.276Z,16.39
2018-08-02T19:13:22.371Z,16.33
2018-08-02T19:14:54.850Z,16.30
2018-08-02T19:16:25.036Z,16.35
2018-08-02T19:17:56.610Z,16.38
2018-08-02T19:19:28.335Z,16.35
2018-08-02T19:20:59.618Z,16.42
2018-08-02T19:22:31.485Z,16.41
2018-08-02T19:24:02.920Z,16.34
2018-08-02T19:25:34.381Z,16.38
2018-08-02T19:30:09.143Z,16.27
2018-08-02T19:31:40.633Z,16.24
2018-08-02T19:34:44.250Z,16.24
2018-08-02T19:36:15.403Z,16.21
2018-08-02T19:37:46.997Z,16.15
2018-08-02T19:39:18.686Z,16.17
2018-08-02T19:40:50.106Z,16.27
2018-08-02T19:42:21.937Z,16.34
2018-08-02T19:43:53.241Z,16.23
2018-08-02T19:48:28.926Z,16.23
2018-08-02T19:49:59.457Z,16.14
2018-08-02T19:51:31.028Z,16.15
2018-08-02T19:53:03.087Z,16.12
2018-08-02T19:54:34.607Z,16.14
2018-08-02T19:56:05.796Z,16.20
2018-08-02T19:57:37.636Z,16.07
2018-08-02T20:02:12.153Z,16.08
2018-08-02T20:03:43.590Z,16.08
2018-08-02T20:06:47.074Z,16.08
2018-08-02T20:08:18.400Z,16.09
2018-08-02T20:09:49.877Z,16.07
2018-08-02T20:12:53.010Z,16.09
2018-08-02T20:14:24.583Z,16.07
2018-08-02T20:15:56.153Z,16.11
2018-08-02T20:17:27.725Z,16.01
2018-08-02T20:20:30.859Z,16.01
2018-08-02T20:25:05.771Z,15.97
2018-08-02T20:26:37.246Z,15.97
2018-08-02T20:28:09.242Z,15.97
2018-08-02T20:29:40.483Z,16.00
2018-08-02T20:31:11.851Z,15.96
2018-08-02T20:32:43.420Z,15.90
2018-08-02T20:34:14.989Z,15.83
2018-08-02T20:35:46.563Z,15.92
2018-08-02T20:37:18.135Z,16.00
2018-08-02T20:38:49.698Z,15.94
2018-08-02T20:40:21.268Z,15.89
2018-08-02T20:41:52.837Z,15.89
2018-08-02T20:43:24.407Z,15.89
2018-08-02T20:44:56.329Z,15.97
2018-08-02T20:46:27.550Z,15.97
2018-08-02T20:47:59.117Z,16.00
2018-08-02T20:49:30.689Z,15.89
2018-08-02T20:51:02.256Z,15.86
2018-08-02T20:52:33.826Z,15.86
2018-08-02T20:54:05.403Z,15.89
2018-08-02T20:55:36.965Z,15.84
2018-08-02T20:57:08.535Z,15.83
2018-08-02T20:58:40.105Z,15.87
2018-08-02T21:00:11.675Z,15.90
2018-08-02T21:01:43.244Z,15.86
2018-08-02T21:03:14.917Z,15.83
2018-08-02T21:04:46.402Z,15.84
2018-08-02T21:06:17.964Z,15.86
2018-08-02T21:07:49.523Z,15.92
2018-08-02T21:09:21.092Z,15.87
2018-08-02T21:10:52.666Z,15.92
2018-08-02T21:12:24.232Z,15.82
2018-08-02T21:13:55.803Z,15.84
2018-08-02T21:15:27.371Z,15.86
2018-08-02T21:16:58.941Z,15.82
2018-08-02T21:18:30.512Z,15.86
2018-08-02T21:20:02.083Z,15.83
2018-08-02T21:21:33.750Z,15.69
2018-08-02T21:23:05.221Z,15.84
2018-08-02T21:24:36.792Z,15.83
2018-08-02T21:26:08.360Z,15.87
2018-08-02T21:27:39.928Z,15.83
2018-08-02T21:29:11.543Z,15.80
2018-08-02T21:30:43.068Z,15.86
2018-08-02T21:32:14.638Z,15.75
2018-08-02T21:33:46.207Z,15.89
2018-08-02T21:35:17.778Z,15.78
2018-08-02T21:36:49.350Z,15.75
2018-08-02T21:38:20.916Z,15.82
2018-08-02T21:39:52.586Z,15.83
2018-08-02T21:41:24.056Z,15.75
2018-08-02T21:42:55.625Z,15.86
2018-08-02T21:44:27.197Z,15.72
2018-08-02T21:45:58.768Z,15.74
2018-08-02T21:47:30.337Z,15.86
2018-08-02T21:49:01.904Z,15.83
2018-08-02T21:50:33.486Z,15.78
2018-08-02T21:52:05.046Z,15.83
2018-08-02T21:53:36.613Z,15.78
2018-08-02T21:55:08.184Z,15.83
2018-08-02T21:56:39.752Z,15.82
2018-08-02T21:58:11.421Z,15.82
2018-08-02T21:59:43.078Z,15.78
2018-08-02T22:01:14.460Z,15.76
2018-08-02T22:02:46.030Z,15.74
2018-08-02T22:04:17.600Z,15.75
2018-08-02T22:05:49.173Z,15.86
2018-08-02T22:07:20.740Z,15.84
2018-08-02T22:08:52.313Z,15.82
2018-08-02T22:10:23.878Z,15.84
2018-08-02T22:11:55.450Z,15.89
2018-08-02T22:13:27.017Z,15.84
2018-08-02T22:14:58.587Z,15.86
2018-08-02T22:16:30.258Z,15.82
2018-08-02T22:18:01.726Z,15.86
2018-08-02T22:19:33.296Z,15.84
2018-08-02T22:21:04.916Z,15.84
2018-08-02T22:22:36.438Z,15.84
2018-08-02T22:24:08.004Z,15.96
2018-08-02T22:25:39.575Z,15.84
2018-08-02T22:27:11.144Z,15.78
2018-08-02T22:28:42.714Z,15.80
2018-08-02T22:30:14.284Z,15.78
2018-08-02T22:31:45.852Z,15.76
2018-08-02T22:33:17.421Z,15.69
2018-08-02T22:34:49.091Z,15.69
2018-08-02T22:36:20.560Z,15.76
2018-08-02T22:37:52.129Z,15.80
2018-08-02T22:39:23.698Z,15.80
2018-08-02T22:40:55.267Z,15.72
2018-08-02T22:42:26.839Z,15.72
2018-08-02T22:43:58.406Z,15.86
2018-08-02T22:45:29.975Z,15.83
2018-08-02T22:47:01.545Z,15.78
2018-08-02T22:48:33.114Z,15.89
2018-08-02T22:50:04.683Z,15.86
2018-08-02T22:51:36.370Z,15.89
2018-08-02T22:53:07.923Z,15.80
2018-08-02T22:54:39.390Z,15.86
2018-08-02T22:56:10.960Z,15.89
2018-08-02T22:57:42.530Z,15.76
2018-08-02T22:59:14.098Z,15.86
2018-08-02T23:00:45.671Z,15.83
2018-08-02T23:02:17.238Z,15.86
2018-08-02T23:03:48.806Z,15.82
2018-08-02T23:05:20.376Z,15.86
2018-08-02T23:06:51.946Z,15.86
2018-08-02T23:08:23.515Z,15.89
2018-08-02T23:09:55.087Z,15.84
2018-08-02T23:11:26.754Z,15.84
2018-08-02T23:12:58.223Z,15.89
2018-08-02T23:14:29.871Z,15.92
2018-08-02T23:16:01.362Z,15.83
2018-08-02T23:17:32.931Z,15.82
2018-08-02T23:19:04.500Z,15.78
2018-08-02T23:20:36.070Z,15.84
2018-08-02T23:22:07.639Z,15.76
2018-08-02T23:23:39.208Z,15.76
2018-08-02T23:25:10.777Z,15.76
2018-08-02T23:26:42.347Z,15.83
2018-08-02T23:28:13.916Z,15.68
2018-08-02T23:29:45.585Z,15.76
2018-08-02T23:31:17.055Z,15.71
2018-08-02T23:32:48.623Z,15.82
2018-08-02T23:34:20.192Z,15.80
2018-08-02T23:35:51.762Z,15.82
2018-08-02T23:37:23.331Z,15.83
2018-08-02T23:38:54.900Z,15.78
2018-08-02T23:40:26.475Z,15.82
2018-08-02T23:41:58.042Z,15.75
2018-08-02T23:43:29.609Z,15.76
2018-08-02T23:45:01.179Z,15.71
2018-08-02T23:46:32.747Z,15.59
2018-08-02T23:48:04.417Z,15.68
2018-08-02T23:49:35.887Z,15.68
2018-08-02T23:51:07.467Z,15.65
2018-08-02T23:52:39.023Z,15.64
2018-08-02T23:54:10.593Z,15.65
2018-08-02T23:55:42.169Z,15.60
2018-08-02T23:57:13.731Z,15.69
2018-08-02T23:58:45.302Z,15.51
